AUA499 LOWW-EKCH
Flight info
| Callsign | AUA499 |
|---|---|
| Flight time | 1h 25m |
| Altitude | 36000 |
| Route | UNGU2C/29 LANUX DCT VLM DCT HDO DCT POGAB DCT BAKDO DCT KOSEB T298 MONAK |
| Aircraft | A320/M-SDE3FGHIRWY/LB1 |
Departure
| Time | 2026-04-25 20:16 |
|---|---|
| Airport | Vienna International Airport (LOWW) |
Arrival
| Time | 2026-04-25 21:41 |
|---|---|
| Airport | Copenhagen Kastrup Airport (EKCH) |
| Time | Latitude | Longitude | Altitude | Speed | Heading |
|---|---|---|---|---|---|
| 2026-04-25 20:01 | 48.11723 | 16.56475 | 605 ft | 0 kts | 117° |
| 2026-04-25 20:03 | 48.11722 | 16.56478 | 605 ft | 2 kts | 117° |
| 2026-04-25 20:03 | 48.11714 | 16.56504 | 608 ft | 2 kts | 115° |
| 2026-04-25 20:03 | 48.11709 | 16.56517 | 613 ft | 1 kts | 115° |
| 2026-04-25 20:04 | 48.11704 | 16.56533 | 611 ft | 4 kts | 115° |
| 2026-04-25 20:04 | 48.11679 | 16.56610 | 618 ft | 12 kts | 116° |
| 2026-04-25 20:04 | 48.11639 | 16.56728 | 611 ft | 12 kts | 117° |
| 2026-04-25 20:04 | 48.11608 | 16.56822 | 612 ft | 8 kts | 114° |
| 2026-04-25 20:05 | 48.11589 | 16.56889 | 608 ft | 6 kts | 114° |
| 2026-04-25 20:05 | 48.11572 | 16.56946 | 613 ft | 8 kts | 114° |
| 2026-04-25 20:05 | 48.11541 | 16.57041 | 614 ft | 12 kts | 117° |
| 2026-04-25 20:05 | 48.11499 | 16.57164 | 618 ft | 14 kts | 116° |
| 2026-04-25 20:06 | 48.11451 | 16.57308 | 623 ft | 17 kts | 117° |
| 2026-04-25 20:06 | 48.11383 | 16.57378 | 616 ft | 12 kts | 197° |
| 2026-04-25 20:06 | 48.11306 | 16.57328 | 623 ft | 13 kts | 207° |
| 2026-04-25 20:06 | 48.11230 | 16.57283 | 626 ft | 9 kts | 177° |
| 2026-04-25 20:07 | 48.11192 | 16.57356 | 622 ft | 11 kts | 117° |
| 2026-04-25 20:07 | 48.11143 | 16.57476 | 624 ft | 16 kts | 116° |
| 2026-04-25 20:07 | 48.11095 | 16.57617 | 627 ft | 8 kts | 126° |
| 2026-04-25 20:07 | 48.11034 | 16.57640 | 617 ft | 11 kts | 202° |
| 2026-04-25 20:08 | 48.11029 | 16.57637 | 617 ft | 0 kts | 203° |
| 2026-04-25 20:14 | 48.11012 | 16.57625 | 621 ft | 7 kts | 205° |
| 2026-04-25 20:14 | 48.10979 | 16.57601 | 628 ft | 3 kts | 206° |
| 2026-04-25 20:14 | 48.10936 | 16.57560 | 625 ft | 12 kts | 227° |
| 2026-04-25 20:15 | 48.10945 | 16.57440 | 623 ft | 16 kts | 294° |
| 2026-04-25 20:15 | 48.11094 | 16.56980 | 634 ft | 82 kts | 296° |
| 2026-04-25 20:15 | 48.11432 | 16.55942 | 624 ft | 137 kts | 296° |
| 2026-04-25 20:15 | 48.11897 | 16.54492 | 832 ft | 160 kts | 295° |
| 2026-04-25 20:16 | 48.12271 | 16.52925 | 1487 ft | 162 kts | 278° |
| 2026-04-25 20:16 | 48.12096 | 16.51240 | 2181 ft | 170 kts | 251° |
| 2026-04-25 20:16 | 48.11319 | 16.49868 | 2820 ft | 180 kts | 220° |
| 2026-04-25 20:16 | 48.10186 | 16.48912 | 3217 ft | 197 kts | 216° |
| 2026-04-25 20:17 | 48.09359 | 16.48238 | 3374 ft | 212 kts | 215° |
| 2026-04-25 20:17 | 48.07702 | 16.46510 | 3961 ft | 219 kts | 237° |
| 2026-04-25 20:17 | 48.07150 | 16.45218 | 4248 ft | 229 kts | 246° |
| 2026-04-25 20:17 | 48.06396 | 16.42987 | 4605 ft | 252 kts | 249° |
| 2026-04-25 20:18 | 48.05642 | 16.40527 | 5191 ft | 265 kts | 249° |
| 2026-04-25 20:18 | 48.04886 | 16.37989 | 6018 ft | 269 kts | 249° |
| 2026-04-25 20:18 | 48.04124 | 16.35422 | 6865 ft | 271 kts | 249° |
| 2026-04-25 20:18 | 48.03371 | 16.31898 | 7964 ft | 270 kts | 266° |
| 2026-04-25 20:19 | 48.03355 | 16.30004 | 8525 ft | 269 kts | 276° |
| 2026-04-25 20:19 | 48.03485 | 16.27208 | 9363 ft | 271 kts | 276° |
| 2026-04-25 20:19 | 48.03616 | 16.24383 | 10137 ft | 274 kts | 277° |
| 2026-04-25 20:19 | 48.04014 | 16.21608 | 10886 ft | 275 kts | 290° |
| 2026-04-25 20:20 | 48.04897 | 16.18992 | 11255 ft | 294 kts | 305° |
| 2026-04-25 20:20 | 48.06228 | 16.16520 | 11423 ft | 317 kts | 308° |
| 2026-04-25 20:20 | 48.07677 | 16.13889 | 11588 ft | 338 kts | 308° |
| 2026-04-25 20:20 | 48.09167 | 16.11166 | 12090 ft | 346 kts | 308° |
| 2026-04-25 20:21 | 48.10695 | 16.08358 | 12748 ft | 350 kts | 308° |
| 2026-04-25 20:21 | 48.12358 | 16.05685 | 13431 ft | 354 kts | 317° |
| 2026-04-25 20:21 | 48.14375 | 16.03542 | 14057 ft | 360 kts | 328° |
| 2026-04-25 20:21 | 48.16698 | 16.02029 | 14652 ft | 366 kts | 338° |
| 2026-04-25 20:22 | 48.19107 | 16.00752 | 15277 ft | 368 kts | 337° |
| 2026-04-25 20:22 | 48.20707 | 15.99900 | 15723 ft | 369 kts | 337° |
| 2026-04-25 20:22 | 48.23954 | 15.98163 | 16544 ft | 372 kts | 337° |
| 2026-04-25 20:22 | 48.26397 | 15.96848 | 17133 ft | 375 kts | 337° |
| 2026-04-25 20:23 | 48.28860 | 15.95519 | 17715 ft | 378 kts | 337° |
| 2026-04-25 20:23 | 48.31349 | 15.94179 | 18288 ft | 381 kts | 337° |
| 2026-04-25 20:23 | 48.33855 | 15.92834 | 18767 ft | 384 kts | 337° |
| 2026-04-25 20:23 | 48.36379 | 15.91480 | 19265 ft | 387 kts | 337° |
| 2026-04-25 20:24 | 48.38924 | 15.90112 | 19745 ft | 389 kts | 337° |
| 2026-04-25 20:24 | 48.41450 | 15.88754 | 20212 ft | 392 kts | 337° |
| 2026-04-25 20:24 | 48.44022 | 15.87368 | 20740 ft | 393 kts | 337° |
| 2026-04-25 20:24 | 48.46604 | 15.85975 | 21217 ft | 395 kts | 337° |
| 2026-04-25 20:25 | 48.49196 | 15.84571 | 21690 ft | 397 kts | 336° |
| 2026-04-25 20:25 | 48.51803 | 15.83154 | 22112 ft | 399 kts | 336° |
| 2026-04-25 20:25 | 48.54419 | 15.81732 | 22532 ft | 402 kts | 336° |
| 2026-04-25 20:25 | 48.57061 | 15.80299 | 22937 ft | 404 kts | 336° |
| 2026-04-25 20:26 | 48.59713 | 15.78858 | 23323 ft | 407 kts | 337° |
| 2026-04-25 20:26 | 48.62389 | 15.77404 | 23666 ft | 409 kts | 337° |
| 2026-04-25 20:26 | 48.65079 | 15.75943 | 23984 ft | 412 kts | 337° |
| 2026-04-25 20:26 | 48.67779 | 15.74473 | 24332 ft | 413 kts | 337° |
| 2026-04-25 20:27 | 48.70489 | 15.72993 | 24672 ft | 414 kts | 337° |
| 2026-04-25 20:27 | 48.73204 | 15.71508 | 24988 ft | 416 kts | 337° |
| 2026-04-25 20:27 | 48.75933 | 15.70011 | 25298 ft | 418 kts | 337° |
| 2026-04-25 20:27 | 48.78671 | 15.68508 | 25610 ft | 419 kts | 337° |
| 2026-04-25 20:28 | 48.81421 | 15.67001 | 25900 ft | 421 kts | 337° |
| 2026-04-25 20:28 | 48.84168 | 15.65428 | 26187 ft | 421 kts | 333° |
| 2026-04-25 20:28 | 48.86761 | 15.63365 | 26469 ft | 421 kts | 328° |
| 2026-04-25 20:28 | 48.89343 | 15.61235 | 26738 ft | 424 kts | 333° |
| 2026-04-25 20:29 | 48.92052 | 15.59429 | 27043 ft | 425 kts | 334° |
| 2026-04-25 20:29 | 48.94769 | 15.57633 | 27339 ft | 426 kts | 334° |
| 2026-04-25 20:29 | 48.97450 | 15.55860 | 27598 ft | 427 kts | 334° |
| 2026-04-25 20:29 | 49.00175 | 15.54052 | 27831 ft | 428 kts | 334° |
| 2026-04-25 20:30 | 49.02912 | 15.52236 | 28061 ft | 429 kts | 334° |
| 2026-04-25 20:30 | 49.05650 | 15.50419 | 28343 ft | 429 kts | 334° |
| 2026-04-25 20:30 | 49.08379 | 15.48604 | 28677 ft | 428 kts | 334° |
| 2026-04-25 20:30 | 49.11105 | 15.46788 | 29001 ft | 427 kts | 334° |
| 2026-04-25 20:31 | 49.13825 | 15.44972 | 29334 ft | 426 kts | 334° |
| 2026-04-25 20:31 | 49.16535 | 15.43159 | 29705 ft | 424 kts | 334° |
| 2026-04-25 20:31 | 49.19228 | 15.41358 | 30095 ft | 422 kts | 334° |
| 2026-04-25 20:31 | 49.21911 | 15.39563 | 30408 ft | 420 kts | 334° |
| 2026-04-25 20:32 | 49.24588 | 15.37769 | 30683 ft | 419 kts | 334° |
| 2026-04-25 20:32 | 49.27252 | 15.35975 | 30965 ft | 418 kts | 333° |
| 2026-04-25 20:32 | 49.29910 | 15.34182 | 31242 ft | 417 kts | 333° |
| 2026-04-25 20:32 | 49.32560 | 15.32398 | 31527 ft | 416 kts | 333° |
| 2026-04-25 20:33 | 49.35207 | 15.30617 | 31817 ft | 415 kts | 334° |
| 2026-04-25 20:33 | 49.37845 | 15.28840 | 32109 ft | 413 kts | 333° |
| 2026-04-25 20:33 | 49.40472 | 15.27068 | 32410 ft | 412 kts | 333° |
| 2026-04-25 20:33 | 49.42211 | 15.25892 | 32646 ft | 411 kts | 333° |
| 2026-04-25 20:34 | 49.45701 | 15.23531 | 33061 ft | 409 kts | 333° |
| 2026-04-25 20:34 | 49.48292 | 15.21774 | 33358 ft | 407 kts | 333° |
| 2026-04-25 20:34 | 49.50886 | 15.20013 | 33652 ft | 406 kts | 333° |
| 2026-04-25 20:34 | 49.53467 | 15.18262 | 33947 ft | 405 kts | 333° |
| 2026-04-25 20:35 | 49.56046 | 15.16511 | 34192 ft | 404 kts | 333° |
| 2026-04-25 20:35 | 49.58615 | 15.14765 | 34431 ft | 403 kts | 333° |
| 2026-04-25 20:35 | 49.61182 | 15.13016 | 34651 ft | 403 kts | 333° |
| 2026-04-25 20:35 | 49.63743 | 15.11268 | 34865 ft | 402 kts | 333° |
| 2026-04-25 20:36 | 49.66303 | 15.09517 | 35117 ft | 402 kts | 333° |
| 2026-04-25 20:36 | 49.68856 | 15.07767 | 35334 ft | 401 kts | 333° |
| 2026-04-25 20:36 | 49.71413 | 15.06045 | 35548 ft | 401 kts | 334° |
| 2026-04-25 20:36 | 49.74010 | 15.04473 | 35727 ft | 401 kts | 336° |
| 2026-04-25 20:37 | 49.76640 | 15.03008 | 35919 ft | 401 kts | 338° |
| 2026-04-25 20:37 | 49.79284 | 15.01598 | 36001 ft | 403 kts | 338° |
| 2026-04-25 20:37 | 49.84570 | 14.98785 | 36017 ft | 405 kts | 337° |
| 2026-04-25 20:38 | 49.89882 | 14.95861 | 36014 ft | 405 kts | 337° |
| 2026-04-25 20:38 | 49.95179 | 14.92885 | 36004 ft | 404 kts | 337° |
| 2026-04-25 20:39 | 50.00464 | 14.89902 | 36005 ft | 404 kts | 337° |
| 2026-04-25 20:39 | 50.04860 | 14.87430 | 36002 ft | 404 kts | 337° |
| 2026-04-25 20:40 | 50.11042 | 14.83942 | 36000 ft | 404 kts | 337° |
| 2026-04-25 20:40 | 50.16327 | 14.80950 | 35997 ft | 404 kts | 337° |
| 2026-04-25 20:41 | 50.21610 | 14.77957 | 36004 ft | 404 kts | 337° |
| 2026-04-25 20:41 | 50.26891 | 14.74965 | 36007 ft | 403 kts | 337° |
| 2026-04-25 20:42 | 50.32163 | 14.71959 | 36009 ft | 403 kts | 337° |
| 2026-04-25 20:42 | 50.37393 | 14.68964 | 36013 ft | 403 kts | 337° |
| 2026-04-25 20:43 | 50.42661 | 14.65945 | 36032 ft | 403 kts | 336° |
| 2026-04-25 20:43 | 50.47920 | 14.62935 | 36030 ft | 402 kts | 336° |
| 2026-04-25 20:44 | 50.53176 | 14.59921 | 36031 ft | 402 kts | 337° |
| 2026-04-25 20:44 | 50.58422 | 14.56899 | 36025 ft | 401 kts | 336° |
| 2026-04-25 20:45 | 50.63659 | 14.53861 | 36017 ft | 401 kts | 337° |
| 2026-04-25 20:45 | 50.68893 | 14.50831 | 36056 ft | 400 kts | 336° |
| 2026-04-25 20:46 | 50.74096 | 14.47823 | 36047 ft | 397 kts | 336° |
| 2026-04-25 20:46 | 50.79272 | 14.44808 | 36042 ft | 396 kts | 336° |
| 2026-04-25 20:47 | 50.84433 | 14.41790 | 36037 ft | 395 kts | 336° |
| 2026-04-25 20:47 | 50.89591 | 14.38775 | 36037 ft | 394 kts | 336° |
| 2026-04-25 20:48 | 50.94803 | 14.36054 | 36046 ft | 396 kts | 341° |
| 2026-04-25 20:48 | 51.00146 | 14.33859 | 36035 ft | 396 kts | 341° |
| 2026-04-25 20:49 | 51.05489 | 14.31664 | 36020 ft | 396 kts | 341° |
| 2026-04-25 20:49 | 51.10797 | 14.29465 | 36004 ft | 397 kts | 341° |
| 2026-04-25 20:50 | 51.16150 | 14.27238 | 36003 ft | 398 kts | 341° |
| 2026-04-25 20:50 | 51.21503 | 14.25013 | 36040 ft | 397 kts | 341° |
| 2026-04-25 20:51 | 51.26852 | 14.22789 | 36037 ft | 396 kts | 341° |
| 2026-04-25 20:51 | 51.32186 | 14.20558 | 36035 ft | 396 kts | 341° |
| 2026-04-25 20:52 | 51.36615 | 14.18699 | 36028 ft | 396 kts | 341° |
| 2026-04-25 20:52 | 51.42839 | 14.16082 | 36083 ft | 395 kts | 340° |
| 2026-04-25 20:53 | 51.48086 | 14.13884 | 36028 ft | 390 kts | 340° |
| 2026-04-25 20:53 | 51.53331 | 14.11672 | 36025 ft | 390 kts | 340° |
| 2026-04-25 20:54 | 51.58576 | 14.09456 | 36023 ft | 390 kts | 340° |
| 2026-04-25 20:54 | 51.63820 | 14.07237 | 36020 ft | 390 kts | 340° |
| 2026-04-25 20:55 | 51.69063 | 14.05011 | 36065 ft | 389 kts | 340° |
| 2026-04-25 20:55 | 51.74299 | 14.02780 | 36046 ft | 388 kts | 340° |
| 2026-04-25 20:56 | 51.79517 | 14.00549 | 36046 ft | 388 kts | 340° |
| 2026-04-25 20:56 | 51.84728 | 13.98313 | 36033 ft | 387 kts | 340° |
| 2026-04-25 20:57 | 51.89942 | 13.96104 | 36039 ft | 387 kts | 340° |
| 2026-04-25 20:57 | 51.95156 | 13.93913 | 36046 ft | 386 kts | 340° |
| 2026-04-25 20:58 | 52.00311 | 13.91728 | 36027 ft | 382 kts | 340° |
| 2026-04-25 20:58 | 52.05459 | 13.89531 | 36022 ft | 382 kts | 340° |
| 2026-04-25 20:59 | 52.10601 | 13.87342 | 35984 ft | 382 kts | 341° |
| 2026-04-25 20:59 | 52.15749 | 13.85147 | 35994 ft | 383 kts | 341° |
| 2026-04-25 21:00 | 52.19165 | 13.83685 | 36003 ft | 383 kts | 341° |
| 2026-04-25 21:01 | 52.28580 | 13.79641 | 36064 ft | 381 kts | 340° |
| 2026-04-25 21:01 | 52.33710 | 13.77428 | 36071 ft | 381 kts | 340° |
| 2026-04-25 21:02 | 52.38827 | 13.75212 | 36071 ft | 380 kts | 340° |
| 2026-04-25 21:02 | 52.43948 | 13.72997 | 36064 ft | 380 kts | 340° |
| 2026-04-25 21:03 | 52.49036 | 13.70792 | 36039 ft | 375 kts | 340° |
| 2026-04-25 21:03 | 52.54072 | 13.68608 | 36033 ft | 374 kts | 340° |
| 2026-04-25 21:04 | 52.59104 | 13.66414 | 36027 ft | 374 kts | 340° |
| 2026-04-25 21:04 | 52.64135 | 13.64215 | 36021 ft | 374 kts | 340° |
| 2026-04-25 21:05 | 52.69167 | 13.62008 | 35973 ft | 374 kts | 340° |
| 2026-04-25 21:05 | 52.74206 | 13.59796 | 35978 ft | 375 kts | 340° |
| 2026-04-25 21:06 | 52.79246 | 13.57582 | 35991 ft | 375 kts | 340° |
| 2026-04-25 21:06 | 52.83434 | 13.55736 | 35996 ft | 375 kts | 340° |
| 2026-04-25 21:07 | 52.88478 | 13.53509 | 36002 ft | 375 kts | 340° |
| 2026-04-25 21:07 | 52.93517 | 13.51267 | 36005 ft | 375 kts | 340° |
| 2026-04-25 21:08 | 52.98561 | 13.49025 | 36050 ft | 374 kts | 340° |
| 2026-04-25 21:08 | 53.03572 | 13.46798 | 36023 ft | 372 kts | 340° |
| 2026-04-25 21:09 | 53.11060 | 13.43454 | 36013 ft | 371 kts | 340° |
| 2026-04-25 21:09 | 53.16052 | 13.41224 | 36015 ft | 371 kts | 340° |
| 2026-04-25 21:10 | 53.21043 | 13.38983 | 35979 ft | 371 kts | 341° |
| 2026-04-25 21:10 | 53.26033 | 13.36736 | 36031 ft | 371 kts | 340° |
| 2026-04-25 21:11 | 53.30986 | 13.34507 | 36027 ft | 371 kts | 341° |
| 2026-04-25 21:11 | 53.35962 | 13.32262 | 36024 ft | 370 kts | 340° |
| 2026-04-25 21:12 | 53.40937 | 13.30002 | 36015 ft | 370 kts | 340° |
| 2026-04-25 21:12 | 53.45064 | 13.28123 | 36022 ft | 370 kts | 340° |
| 2026-04-25 21:13 | 53.50875 | 13.25473 | 36018 ft | 370 kts | 340° |
| 2026-04-25 21:13 | 53.55811 | 13.23222 | 36010 ft | 366 kts | 340° |
| 2026-04-25 21:14 | 53.60722 | 13.20972 | 36009 ft | 366 kts | 340° |
| 2026-04-25 21:14 | 53.65634 | 13.18716 | 36007 ft | 366 kts | 340° |
| 2026-04-25 21:15 | 53.70547 | 13.16464 | 36009 ft | 366 kts | 340° |
| 2026-04-25 21:15 | 53.75465 | 13.14196 | 36008 ft | 366 kts | 340° |
| 2026-04-25 21:16 | 53.80383 | 13.11918 | 36020 ft | 365 kts | 341° |
| 2026-04-25 21:16 | 53.85275 | 13.09648 | 36013 ft | 365 kts | 341° |
| 2026-04-25 21:17 | 53.90172 | 13.07380 | 36016 ft | 365 kts | 341° |
| 2026-04-25 21:17 | 53.95039 | 13.05112 | 36008 ft | 365 kts | 341° |
| 2026-04-25 21:18 | 53.99936 | 13.02824 | 35768 ft | 364 kts | 341° |
| 2026-04-25 21:18 | 54.02375 | 13.01686 | 35517 ft | 363 kts | 340° |
| 2026-04-25 21:18 | 54.04801 | 13.00555 | 35343 ft | 361 kts | 340° |
| 2026-04-25 21:19 | 54.07212 | 12.99428 | 35099 ft | 357 kts | 340° |
| 2026-04-25 21:19 | 54.09600 | 12.98308 | 34864 ft | 355 kts | 340° |
| 2026-04-25 21:19 | 54.11974 | 12.97193 | 34624 ft | 353 kts | 340° |
| 2026-04-25 21:19 | 54.14323 | 12.96022 | 34386 ft | 350 kts | 339° |
| 2026-04-25 21:20 | 54.16638 | 12.94759 | 34148 ft | 348 kts | 338° |
| 2026-04-25 21:20 | 54.18161 | 12.93893 | 33984 ft | 347 kts | 338° |
| 2026-04-25 21:20 | 54.21213 | 12.92128 | 33631 ft | 346 kts | 338° |
| 2026-04-25 21:20 | 54.23501 | 12.90808 | 33355 ft | 346 kts | 338° |
| 2026-04-25 21:21 | 54.25785 | 12.89504 | 33093 ft | 347 kts | 338° |
| 2026-04-25 21:21 | 54.28080 | 12.88205 | 32819 ft | 347 kts | 338° |
| 2026-04-25 21:21 | 54.30374 | 12.86912 | 32556 ft | 347 kts | 338° |
| 2026-04-25 21:21 | 54.32678 | 12.85613 | 32292 ft | 350 kts | 339° |
| 2026-04-25 21:22 | 54.34997 | 12.84302 | 32033 ft | 350 kts | 339° |
| 2026-04-25 21:22 | 54.37307 | 12.82995 | 31775 ft | 350 kts | 339° |
| 2026-04-25 21:22 | 54.39589 | 12.81703 | 31525 ft | 350 kts | 339° |
| 2026-04-25 21:22 | 54.41901 | 12.80396 | 31015 ft | 350 kts | 339° |
| 2026-04-25 21:23 | 54.44226 | 12.79087 | 30092 ft | 351 kts | 340° |
| 2026-04-25 21:23 | 54.46551 | 12.77779 | 29043 ft | 352 kts | 340° |
| 2026-04-25 21:23 | 54.48874 | 12.76465 | 28025 ft | 352 kts | 339° |
| 2026-04-25 21:23 | 54.51199 | 12.75146 | 27038 ft | 351 kts | 339° |
| 2026-04-25 21:24 | 54.53513 | 12.73827 | 26089 ft | 348 kts | 339° |
| 2026-04-25 21:24 | 54.55752 | 12.72550 | 25285 ft | 332 kts | 339° |
| 2026-04-25 21:24 | 54.57927 | 12.71306 | 24615 ft | 327 kts | 338° |
| 2026-04-25 21:24 | 54.60079 | 12.70074 | 24034 ft | 324 kts | 339° |
| 2026-04-25 21:25 | 54.62241 | 12.69098 | 23871 ft | 320 kts | 342° |
| 2026-04-25 21:25 | 54.64411 | 12.68212 | 23805 ft | 320 kts | 342° |
| 2026-04-25 21:25 | 54.66584 | 12.67346 | 23739 ft | 320 kts | 343° |
| 2026-04-25 21:25 | 54.68751 | 12.66489 | 23675 ft | 319 kts | 343° |
| 2026-04-25 21:26 | 54.70974 | 12.65600 | 23159 ft | 335 kts | 343° |
| 2026-04-25 21:26 | 54.73261 | 12.64685 | 22557 ft | 338 kts | 343° |
| 2026-04-25 21:26 | 54.75545 | 12.63778 | 21970 ft | 336 kts | 343° |
| 2026-04-25 21:26 | 54.77823 | 12.62877 | 21393 ft | 334 kts | 343° |
| 2026-04-25 21:27 | 54.80049 | 12.61996 | 20837 ft | 331 kts | 343° |
| 2026-04-25 21:27 | 54.82287 | 12.61105 | 20283 ft | 329 kts | 343° |
| 2026-04-25 21:27 | 54.84514 | 12.60216 | 19743 ft | 327 kts | 343° |
| 2026-04-25 21:27 | 54.86711 | 12.59340 | 19111 ft | 319 kts | 343° |
| 2026-04-25 21:28 | 54.88858 | 12.58487 | 17712 ft | 317 kts | 343° |
| 2026-04-25 21:28 | 54.91012 | 12.57626 | 16213 ft | 318 kts | 344° |
| 2026-04-25 21:28 | 54.93173 | 12.56757 | 14778 ft | 319 kts | 344° |
| 2026-04-25 21:28 | 54.95340 | 12.55881 | 13338 ft | 321 kts | 345° |
| 2026-04-25 21:29 | 54.97520 | 12.55000 | 11792 ft | 322 kts | 345° |
| 2026-04-25 21:29 | 54.99703 | 12.54122 | 10679 ft | 318 kts | 346° |
| 2026-04-25 21:29 | 55.01766 | 12.53295 | 10432 ft | 290 kts | 346° |
| 2026-04-25 21:29 | 55.03637 | 12.52545 | 10297 ft | 263 kts | 346° |
| 2026-04-25 21:30 | 55.05357 | 12.51854 | 10014 ft | 247 kts | 346° |
| 2026-04-25 21:30 | 55.07022 | 12.51178 | 9859 ft | 246 kts | 346° |
| 2026-04-25 21:30 | 55.08689 | 12.50497 | 9712 ft | 246 kts | 346° |
| 2026-04-25 21:30 | 55.09784 | 12.50050 | 9624 ft | 246 kts | 346° |
| 2026-04-25 21:31 | 55.12030 | 12.49139 | 9449 ft | 246 kts | 346° |
| 2026-04-25 21:31 | 55.13694 | 12.48461 | 9269 ft | 245 kts | 346° |
| 2026-04-25 21:31 | 55.15326 | 12.47793 | 8865 ft | 243 kts | 346° |
| 2026-04-25 21:31 | 55.16973 | 12.47117 | 8426 ft | 243 kts | 347° |
| 2026-04-25 21:32 | 55.18623 | 12.46442 | 7979 ft | 243 kts | 347° |
| 2026-04-25 21:32 | 55.20258 | 12.45774 | 7318 ft | 241 kts | 347° |
| 2026-04-25 21:32 | 55.21895 | 12.45105 | 6604 ft | 242 kts | 347° |
| 2026-04-25 21:32 | 55.23536 | 12.44435 | 5871 ft | 242 kts | 347° |
| 2026-04-25 21:33 | 55.25169 | 12.43768 | 5214 ft | 240 kts | 348° |
| 2026-04-25 21:33 | 55.26783 | 12.43111 | 5046 ft | 239 kts | 348° |
| 2026-04-25 21:33 | 55.28415 | 12.42450 | 4904 ft | 241 kts | 348° |
| 2026-04-25 21:33 | 55.30043 | 12.41787 | 4730 ft | 239 kts | 348° |
| 2026-04-25 21:34 | 55.31643 | 12.41131 | 4095 ft | 235 kts | 348° |
| 2026-04-25 21:34 | 55.33224 | 12.40482 | 3437 ft | 231 kts | 348° |
| 2026-04-25 21:34 | 55.34775 | 12.39845 | 3009 ft | 225 kts | 348° |
| 2026-04-25 21:34 | 55.36312 | 12.39214 | 3023 ft | 228 kts | 348° |
| 2026-04-25 21:35 | 55.37802 | 12.38603 | 3011 ft | 211 kts | 348° |
| 2026-04-25 21:35 | 55.39185 | 12.38033 | 3014 ft | 200 kts | 348° |
| 2026-04-25 21:35 | 55.40537 | 12.37476 | 3016 ft | 199 kts | 348° |
| 2026-04-25 21:35 | 55.41879 | 12.36934 | 3016 ft | 198 kts | 351° |
| 2026-04-25 21:36 | 55.43249 | 12.36935 | 3019 ft | 198 kts | 10° |
| 2026-04-25 21:36 | 55.44530 | 12.37856 | 3020 ft | 203 kts | 30° |
| 2026-04-25 21:36 | 55.45625 | 12.39459 | 3025 ft | 205 kts | 36° |
| 2026-04-25 21:36 | 55.46672 | 12.41073 | 3014 ft | 193 kts | 36° |
| 2026-04-25 21:37 | 55.47645 | 12.42567 | 2984 ft | 180 kts | 35° |
| 2026-04-25 21:37 | 55.48262 | 12.43511 | 2889 ft | 175 kts | 35° |
| 2026-04-25 21:37 | 55.49464 | 12.45351 | 2617 ft | 171 kts | 34° |
| 2026-04-25 21:37 | 55.50361 | 12.46726 | 2420 ft | 167 kts | 34° |
| 2026-04-25 21:38 | 55.51225 | 12.48050 | 2170 ft | 166 kts | 34° |
| 2026-04-25 21:38 | 55.52094 | 12.49383 | 1932 ft | 165 kts | 33° |
| 2026-04-25 21:38 | 55.52945 | 12.50693 | 1701 ft | 157 kts | 33° |
| 2026-04-25 21:38 | 55.53728 | 12.51902 | 1491 ft | 142 kts | 32° |
| 2026-04-25 21:39 | 55.54449 | 12.53011 | 1302 ft | 134 kts | 32° |
| 2026-04-25 21:39 | 55.55144 | 12.54078 | 1149 ft | 131 kts | 33° |
| 2026-04-25 21:39 | 55.55825 | 12.55123 | 968 ft | 130 kts | 34° |
| 2026-04-25 21:39 | 55.56509 | 12.56174 | 780 ft | 131 kts | 34° |
| 2026-04-25 21:40 | 55.57200 | 12.57238 | 589 ft | 134 kts | 35° |
| 2026-04-25 21:40 | 55.57905 | 12.58324 | 409 ft | 134 kts | 34° |
| 2026-04-25 21:40 | 55.58611 | 12.59416 | 220 ft | 135 kts | 35° |
| 2026-04-25 21:40 | 55.59321 | 12.60505 | 48 ft | 135 kts | 36° |
| 2026-04-25 21:41 | 55.59924 | 12.61436 | 19 ft | 79 kts | 40° |
| 2026-04-25 21:41 | 55.60162 | 12.61810 | 23 ft | 43 kts | 42° |
| 2026-04-25 21:41 | 55.60437 | 12.62221 | 20 ft | 39 kts | 38° |
| 2026-04-25 21:41 | 55.60583 | 12.62322 | 24 ft | 23 kts | 16° |
| 2026-04-25 21:42 | 55.60777 | 12.62403 | 22 ft | 34 kts | 22° |
| 2026-04-25 21:42 | 55.60985 | 12.62696 | 19 ft | 43 kts | 40° |
| 2026-04-25 21:42 | 55.61184 | 12.63007 | 22 ft | 33 kts | 44° |
| 2026-04-25 21:42 | 55.61381 | 12.63314 | 22 ft | 43 kts | 40° |
| 2026-04-25 21:43 | 55.61606 | 12.63656 | 18 ft | 24 kts | 41° |
| 2026-04-25 21:43 | 55.61654 | 12.63731 | 20 ft | 8 kts | 42° |
| 2026-04-25 21:43 | 55.61715 | 12.63831 | 20 ft | 13 kts | 43° |
| 2026-04-25 21:43 | 55.61778 | 12.63927 | 21 ft | 12 kts | 40° |
| 2026-04-25 21:44 | 55.61853 | 12.64044 | 21 ft | 16 kts | 42° |
| 2026-04-25 21:44 | 55.61957 | 12.64144 | 21 ft | 19 kts | 25° |
| 2026-04-25 21:44 | 55.62147 | 12.64302 | 17 ft | 0 kts | 25° |
| 2026-04-25 21:48 | 55.62181 | 12.64330 | 17 ft | 14 kts | 25° |
| 2026-04-25 21:48 | 55.62268 | 12.64313 | 18 ft | 14 kts | 307° |
| 2026-04-25 21:48 | 55.62329 | 12.64149 | 16 ft | 17 kts | 303° |
| 2026-04-25 21:49 | 55.62394 | 12.63973 | 19 ft | 17 kts | 303° |
| 2026-04-25 21:49 | 55.62470 | 12.63814 | 21 ft | 16 kts | 329° |
| 2026-04-25 21:49 | 55.62574 | 12.63772 | 24 ft | 15 kts | 3° |
| 2026-04-25 21:49 | 55.62674 | 12.63842 | 24 ft | 17 kts | 32° |
| 2026-04-25 21:50 | 55.62777 | 12.63952 | 23 ft | 12 kts | 8° |
| 2026-04-25 21:50 | 55.62858 | 12.63988 | 22 ft | 0 kts | 15° |
| 2026-04-25 21:50 | 55.62859 | 12.63988 | 22 ft | 0 kts | 15° |
| 2026-04-25 21:51 | 55.62867 | 12.63994 | 22 ft | 2 kts | 18° |
| 2026-04-25 21:51 | 55.62877 | 12.63998 | 22 ft | 0 kts | 13° |
| 2026-04-25 21:53 | 55.62878 | 12.63999 | 22 ft | 0 kts | 13° |
| 2026-04-25 21:53 | 55.62880 | 12.64000 | 22 ft | 0 kts | 13° |